^^
Your Local Weather - Clay, NY Station Historical Data
Daily Summary for April 21, 2017 Units:  English    Metric   Both
« Previous Day
Next Day »
Daily Weekly Monthly Yearly Custom
  High: Low: Average:
Temperature: 58.9 °F 48.7 °F 52 °F
Dew Point: 52.0 °F 41.1 °F 47.4 °F
Humidity: 94% 69% 85%
Wind Speed: 6.0mph 0.0mph 2.4mph
Wind Gust: 13.0mph - -
Wind- - SSW
Pressure: 29.93 in 29.74 in -
Precipitation: 0.21 in    
Historical Graphs
 
 
Tabular Data for April 21, 2017
Time Temperature Dew Point Pressure Wind Wind Speed Wind Gust Humidity Rainfall Rate (Hourly) solar
00:04 51.2 °F 49.2 °F 29.83 in East 3.0 mph 7.0 mph 93% 0.08 in 0 W/m2
00:10 51.2 °F 49.2 °F 29.82 in ENE 3.0 mph 3.0 mph 93% 0.08 in 0 W/m2
00:16 51.2 °F 49.2 °F 29.80 in ENE 3.0 mph 4.0 mph 93% 0.09 in 0 W/m2
00:22 51.2 °F 49.2 °F 29.79 in East 4.0 mph 4.0 mph 93% 0.09 in 0 W/m2
00:28 51.1 °F 49.1 °F 29.78 in SE 4.0 mph 10.0 mph 93% 0.05 in 0 W/m2
00:34 51.0 °F 49.0 °F 29.80 in NE 4.0 mph 4.0 mph 93% 0.05 in 0 W/m2
00:40 51.2 °F 49.2 °F 29.80 in ENE 3.0 mph 3.0 mph 93% 0.05 in 0 W/m2
00:46 51.3 °F 49.3 °F 29.81 in NE 2.0 mph 5.0 mph 93% 0.00 in 0 W/m2
00:52 51.1 °F 49.1 °F 29.80 in ENE 2.0 mph 3.0 mph 93% 0.00 in 0 W/m2
01:04 50.5 °F 48.6 °F 29.79 in ENE 4.0 mph 8.0 mph 93% 0.00 in 0 W/m2
01:10 50.5 °F 48.6 °F 29.79 in ENE 3.0 mph 3.0 mph 93% 0.00 in 0 W/m2
01:16 50.4 °F 48.5 °F 29.79 in NE 2.0 mph 4.0 mph 93% 0.00 in 0 W/m2
01:22 50.2 °F 48.3 °F 29.78 in ENE 3.0 mph 3.0 mph 93% 0.00 in 0 W/m2
01:28 50.2 °F 48.3 °F 29.78 in NE 3.0 mph 4.0 mph 93% 0.00 in 0 W/m2
01:34 50.2 °F 48.5 °F 29.79 in ENE 2.0 mph 3.0 mph 94% 0.00 in 0 W/m2
01:40 50.2 °F 48.5 °F 29.78 in East 2.0 mph 3.0 mph 94% 0.00 in 0 W/m2
01:46 50.2 °F 48.5 °F 29.78 in ENE 2.0 mph 4.0 mph 94% 0.00 in 0 W/m2
01:52 50.2 °F 48.5 °F 29.77 in NE 4.0 mph 4.0 mph 94% 0.00 in 0 W/m2
01:58 50.1 °F 48.2 °F 29.77 in ENE 4.0 mph 5.0 mph 93% 0.00 in 0 W/m2
02:04 50.1 °F 48.4 °F 29.77 in ENE 4.0 mph 7.0 mph 94% 0.00 in 0 W/m2
02:10 50.1 °F 48.4 °F 29.77 in NE 4.0 mph 5.0 mph 94% 0.00 in 0 W/m2
02:16 50.1 °F 48.4 °F 29.77 in ENE 2.0 mph 5.0 mph 94% 0.00 in 0 W/m2
02:22 50.0 °F 48.3 °F 29.77 in East 3.0 mph 3.0 mph 94% 0.00 in 0 W/m2
02:28 49.9 °F 48.2 °F 29.76 in ENE 3.0 mph 3.0 mph 94% 0.00 in 0 W/m2
02:34 49.9 °F 48.2 °F 29.77 in NE 3.0 mph 3.0 mph 94% 0.04 in 0 W/m2
02:40 49.9 °F 48.2 °F 29.76 in NE 2.0 mph 2.0 mph 94% 0.04 in 0 W/m2
02:46 50.0 °F 48.3 °F 29.76 in East 3.0 mph 5.0 mph 94% 0.04 in 0 W/m2
02:52 50.0 °F 48.3 °F 29.76 in East 3.0 mph 3.0 mph 94% 0.00 in 0 W/m2
02:58 50.1 °F 48.4 °F 29.76 in ENE 3.0 mph 6.0 mph 94% 0.00 in 0 W/m2
03:04 50.2 °F 48.5 °F 29.76 in NE 3.0 mph 3.0 mph 94% 0.00 in 0 W/m2
03:10 50.2 °F 48.5 °F 29.76 in ENE 3.0 mph 3.0 mph 94% 0.00 in 0 W/m2
03:16 50.3 °F 48.6 °F 29.76 in ENE 3.0 mph 3.0 mph 94% 0.00 in 0 W/m2
03:22 50.2 °F 48.5 °F 29.74 in East 4.0 mph 5.0 mph 94% 0.10 in 0 W/m2
03:28 50.1 °F 48.4 °F 29.75 in NE 4.0 mph 5.0 mph 94% 0.10 in 0 W/m2
03:34 50.1 °F 48.4 °F 29.75 in NNE 2.0 mph 7.0 mph 94% 0.06 in 0 W/m2
03:40 50.1 °F 48.4 °F 29.75 in ENE 3.0 mph 3.0 mph 94% 0.04 in 0 W/m2
03:46 50.0 °F 48.3 °F 29.75 in NE 4.0 mph 4.0 mph 94% 0.00 in 0 W/m2
03:52 49.9 °F 48.2 °F 29.75 in ENE 4.0 mph 4.0 mph 94% 0.00 in 0 W/m2
03:58 49.8 °F 48.1 °F 29.75 in ENE 4.0 mph 4.0 mph 94% 0.00 in 0 W/m2
04:04 49.7 °F 48.0 °F 29.75 in East 4.0 mph 7.0 mph 94% 0.00 in 0 W/m2
04:10 49.6 °F 47.9 °F 29.75 in NNE 4.0 mph 5.0 mph 94% 0.00 in 0 W/m2
04:22 49.4 °F 47.7 °F 29.75 in ENE 6.0 mph 7.0 mph 94% 0.00 in 0 W/m2
04:28 49.4 °F 47.7 °F 29.75 in ENE 5.0 mph 7.0 mph 94% 0.00 in 0 W/m2
04:34 49.4 °F 47.7 °F 29.75 in ENE 4.0 mph 6.0 mph 94% 0.00 in 0 W/m2
04:40 49.4 °F 47.7 °F 29.75 in NE 4.0 mph 4.0 mph 94% 0.00 in 0 W/m2
04:46 49.4 °F 47.7 °F 29.75 in ENE 3.0 mph 5.0 mph 94% 0.00 in 0 W/m2
04:52 49.4 °F 47.7 °F 29.75 in ENE 4.0 mph 9.0 mph 94% 0.00 in 0 W/m2
04:58 49.3 °F 47.6 °F 29.75 in East 4.0 mph 9.0 mph 94% 0.00 in 0 W/m2
05:04 49.3 °F 47.6 °F 29.74 in East 4.0 mph 5.0 mph 94% 0.00 in 0 W/m2
05:10 49.2 °F 47.5 °F 29.74 in ENE 4.0 mph 5.0 mph 94% 0.00 in 0 W/m2
05:16 49.2 °F 47.5 °F 29.74 in ESE 4.0 mph 6.0 mph 94% 0.00 in 0 W/m2
05:22 49.2 °F 47.5 °F 29.74 in ENE 4.0 mph 4.0 mph 94% 0.00 in 0 W/m2
05:28 49.3 °F 47.6 °F 29.74 in ENE 3.0 mph 7.0 mph 94% 0.00 in 0 W/m2
05:34 49.3 °F 47.6 °F 29.75 in ENE 3.0 mph 4.0 mph 94% 0.00 in 0 W/m2
05:40 49.4 °F 47.7 °F 29.75 in ENE 2.0 mph 4.0 mph 94% 0.00 in 0 W/m2
05:46 49.5 °F 47.8 °F 29.75 in ENE 2.0 mph 4.0 mph 94% 0.00 in 0 W/m2
05:52 49.6 °F 47.9 °F 29.74 in ENE 3.0 mph 5.0 mph 94% 0.00 in 0 W/m2
05:58 49.6 °F 47.9 °F 29.75 in ENE 3.0 mph 5.0 mph 94% 0.00 in 0 W/m2
06:04 49.7 °F 48.0 °F 29.75 in ENE 3.0 mph 3.0 mph 94% 0.00 in 0 W/m2
06:10 49.8 °F 48.1 °F 29.75 in ENE 2.0 mph 4.0 mph 94% 0.00 in 0 W/m2
06:16 49.9 °F 48.2 °F 29.75 in ENE 2.0 mph 4.0 mph 94% 0.00 in 0 W/m2
06:22 50.0 °F 48.3 °F 29.75 in ENE 3.0 mph 4.0 mph 94% 0.00 in 0 W/m2
06:28 50.1 °F 48.4 °F 29.75 in ENE 3.0 mph 4.0 mph 94% 0.00 in 0 W/m2
06:34 50.2 °F 48.5 °F 29.74 in ESE 3.0 mph 5.0 mph 94% 0.00 in 0 W/m2
06:40 50.2 °F 48.5 °F 29.75 in East 2.0 mph 5.0 mph 94% 0.00 in 5 W/m2
06:46 50.3 °F 48.6 °F 29.75 in ENE 2.0 mph 5.0 mph 94% 0.00 in 0 W/m2
06:52 50.5 °F 48.8 °F 29.75 in ENE 3.0 mph 3.0 mph 94% 0.00 in 0 W/m2
07:04 50.6 °F 48.9 °F 29.75 in ENE 3.0 mph 3.0 mph 94% 0.00 in 5 W/m2
07:10 50.6 °F 48.9 °F 29.75 in ENE 2.0 mph 5.0 mph 94% 0.00 in 12 W/m2
07:16 50.8 °F 49.1 °F 29.75 in ENE 3.0 mph 5.0 mph 94% 0.00 in 40 W/m2
07:22 50.9 °F 49.2 °F 29.75 in NE 3.0 mph 4.0 mph 94% 0.00 in 35 W/m2
07:28 51.1 °F 49.4 °F 29.75 in ENE 3.0 mph 4.0 mph 94% 0.00 in 21 W/m2
07:34 51.1 °F 49.1 °F 29.76 in East 3.0 mph 3.0 mph 93% 0.00 in 25 W/m2
07:40 51.3 °F 49.3 °F 29.76 in East 2.0 mph 2.0 mph 93% 0.00 in 7 W/m2
07:46 51.4 °F 49.7 °F 29.76 in ENE 2.0 mph 4.0 mph 94% 0.00 in 26 W/m2
07:52 51.5 °F 49.5 °F 29.76 in ENE 3.0 mph 3.0 mph 93% 0.00 in 51 W/m2
07:58 51.6 °F 49.6 °F 29.76 in ENE 2.0 mph 4.0 mph 93% 0.00 in 23 W/m2
08:04 51.4 °F 49.4 °F 29.76 in NE 2.0 mph 2.0 mph 93% 0.00 in 26 W/m2
08:10 51.4 °F 49.4 °F 29.76 in ENE 2.0 mph 2.0 mph 93% 0.00 in 26 W/m2
08:16 51.4 °F 49.4 °F 29.76 in East 2.0 mph 6.0 mph 93% 0.00 in 58 W/m2
08:22 51.7 °F 49.7 °F 29.76 in East 3.0 mph 7.0 mph 93% 0.00 in 102 W/m2
08:28 52.1 °F 50.1 °F 29.75 in ENE 4.0 mph 7.0 mph 93% 0.00 in 160 W/m2
08:34 52.3 °F 50.3 °F 29.75 in East 4.0 mph 4.0 mph 93% 0.00 in 81 W/m2
08:40 52.7 °F 50.7 °F 29.75 in NE 3.0 mph 3.0 mph 93% 0.00 in 77 W/m2
08:46 53.0 °F 51.0 °F 29.75 in ENE 3.0 mph 8.0 mph 93% 0.00 in 62 W/m2
08:52 53.2 °F 50.9 °F 29.75 in East 3.0 mph 3.0 mph 92% 0.00 in 51 W/m2
08:58 53.4 °F 51.1 °F 29.75 in ENE 2.0 mph 3.0 mph 92% 0.00 in 72 W/m2
09:04 53.5 °F 51.2 °F 29.75 in East 2.0 mph 5.0 mph 92% 0.00 in 51 W/m2
09:10 53.7 °F 51.4 °F 29.75 in East 2.0 mph 2.0 mph 92% 0.00 in 51 W/m2
09:16 53.8 °F 51.5 °F 29.76 in NNW 2.0 mph 3.0 mph 92% 0.00 in 26 W/m2
09:22 53.5 °F 51.2 °F 29.77 in NNW 3.0 mph 3.0 mph 92% 0.00 in 46 W/m2
09:28 52.8 °F 50.2 °F 29.77 in NW 3.0 mph 4.0 mph 91% 0.00 in 14 W/m2
09:34 52.5 °F 49.9 °F 29.77 in NW 3.0 mph 4.0 mph 91% 0.00 in 16 W/m2
09:40 52.3 °F 49.8 °F 29.77 in NW 2.0 mph 2.0 mph 91% 0.00 in 35 W/m2
09:46 52.2 °F 49.7 °F 29.78 in NW 2.0 mph 2.0 mph 91% 0.79 in 30 W/m2
09:52 52.1 °F 49.8 °F 29.78 in NW 2.0 mph 3.0 mph 92% 0.38 in 91 W/m2
09:58 52.1 °F 49.8 °F 29.77 in NNW 3.0 mph 5.0 mph 92% 0.13 in 121 W/m2
10:04 52.4 °F 50.1 °F 29.77 in NW 3.0 mph 3.0 mph 92% 0.08 in 84 W/m2
10:10 52.5 °F 50.2 °F 29.77 in NNW 2.0 mph 2.0 mph 92% 0.04 in 51 W/m2
10:16 52.4 °F 50.1 °F 29.77 in NNW 2.0 mph 2.0 mph 92% 0.00 in 51 W/m2
10:22 52.3 °F 50.0 °F 29.77 in NNW 2.0 mph 2.0 mph 92% 0.00 in 53 W/m2
10:28 52.1 °F 49.8 °F 29.78 in NE 2.0 mph 2.0 mph 92% 0.00 in 32 W/m2
10:34 52.1 °F 49.8 °F 29.80 in NE 1.0 mph 1.0 mph 92% 0.00 in 23 W/m2
10:40 52.1 °F 49.8 °F 29.80 in Calm     92% 0.00 in 44 W/m2
10:46 52.1 °F 49.8 °F 29.80 in Calm     92% 0.20 in 76 W/m2
10:52 52.3 °F 50.3 °F 29.80 in Calm     93% 0.06 in 148 W/m2
10:58 52.7 °F 50.7 °F 29.80 in Calm     93% 0.04 in 171 W/m2
11:04 53.0 °F 51.0 °F 29.80 in Calm     93% 0.00 in 116 W/m2
11:10 53.3 °F 51.3 °F 29.80 in Calm   1.0 mph 93% 0.00 in 149 W/m2
11:16 53.3 °F 51.3 °F 29.80 in NW 1.0 mph 4.0 mph 93% 0.00 in 107 W/m2
11:22 53.2 °F 50.9 °F 29.81 in NNW 1.0 mph 2.0 mph 92% 0.00 in 83 W/m2
11:28 53.1 °F 50.8 °F 29.80 in North 2.0 mph 2.0 mph 92% 0.00 in 167 W/m2
11:34 53.1 °F 50.8 °F 29.81 in North 2.0 mph 3.0 mph 92% 0.00 in 179 W/m2
11:40 53.2 °F 50.6 °F 29.80 in North 1.0 mph 1.0 mph 91% 0.00 in 218 W/m2
11:46 53.4 °F 50.8 °F 29.80 in North 1.0 mph 2.0 mph 91% 0.00 in 295 W/m2
11:52 53.7 °F 51.1 °F 29.80 in North 1.0 mph 2.0 mph 91% 0.00 in 220 W/m2
11:58 53.9 °F 51.3 °F 29.81 in North 1.0 mph 2.0 mph 91% 0.00 in 148 W/m2
12:04 53.9 °F 51.0 °F 29.81 in North 1.0 mph 2.0 mph 90% 0.00 in 264 W/m2
12:10 54.1 °F 50.9 °F 29.81 in NW 2.0 mph 3.0 mph 89% 0.00 in 237 W/m2
12:16 54.1 °F 50.3 °F 29.81 in NNW 3.0 mph 3.0 mph 87% 0.00 in 283 W/m2
12:22 54.4 °F 50.6 °F 29.81 in NNW 2.0 mph 3.0 mph 87% 0.00 in 364 W/m2
12:28 54.8 °F 50.7 °F 29.82 in NW 2.0 mph 3.0 mph 86% 0.00 in 297 W/m2
12:34 55.2 °F 50.4 °F 29.82 in NNW 1.0 mph 3.0 mph 84% 0.00 in 257 W/m2
12:40 55.7 °F 51.3 °F 29.81 in NNW 1.0 mph 1.0 mph 85% 0.00 in 459 W/m2
12:46 56.1 °F 52.0 °F 29.81 in North 2.0 mph 6.0 mph 86% 0.00 in 461 W/m2
12:50 55.5 °F 50.4 °F 29.82 in NE 3.0 mph 3.0 mph 83% 0.00 in 244 W/m2
12:56 55.3 °F 50.2 °F 29.82 in North 2.0 mph 4.0 mph 83% 0.00 in 304 W/m2
13:02 55.5 °F 50.4 °F 29.81 in North 2.0 mph 2.0 mph 83% 0.00 in 214 W/m2
13:08 55.5 °F 50.1 °F 29.82 in North 2.0 mph 4.0 mph 82% 0.00 in 260 W/m2
13:20 56.5 °F 51.1 °F 29.81 in NW 2.0 mph 2.0 mph 82% 0.00 in 877 W/m2
13:26 56.4 °F 50.0 °F 29.81 in NW 2.0 mph 2.0 mph 79% 0.00 in 232 W/m2
13:32 56.5 °F 49.4 °F 29.81 in North 2.0 mph 2.0 mph 77% 0.00 in 399 W/m2
13:44 56.6 °F 50.2 °F 29.80 in NW 3.0 mph 4.0 mph 79% 0.00 in 339 W/m2
13:50 57.0 °F 51.2 °F 29.80 in NW 3.0 mph 4.0 mph 81% 0.00 in 506 W/m2
13:56 57.9 °F 51.4 °F 29.80 in SW 3.0 mph 4.0 mph 79% 0.00 in 965 W/m2
14:02 58.8 °F 51.2 °F 29.80 in WNW 3.0 mph 3.0 mph 76% 0.00 in 534 W/m2
14:08 58.0 °F 49.8 °F 29.80 in North 3.0 mph 5.0 mph 74% 0.00 in 320 W/m2
14:14 57.5 °F 49.6 °F 29.80 in North 2.0 mph 3.0 mph 75% 0.00 in 260 W/m2
14:20 57.4 °F 50.2 °F 29.80 in North 1.0 mph 2.0 mph 77% 0.00 in 265 W/m2
14:26 58.5 °F 50.6 °F 29.80 in WNW 2.0 mph 3.0 mph 75% 0.00 in 334 W/m2
14:32 58.3 °F 50.4 °F 29.80 in WNW 2.0 mph 2.0 mph 75% 0.00 in 359 W/m2
14:38 58.1 °F 50.2 °F 29.80 in WSW 1.0 mph 3.0 mph 75% 0.00 in 496 W/m2
14:50 58.9 °F 49.9 °F 29.80 in WNW 1.0 mph 1.0 mph 72% 0.00 in 251 W/m2
14:56 58.5 °F 49.9 °F 29.80 in NW 1.0 mph 4.0 mph 73% 0.00 in 174 W/m2
15:02 58.3 °F 49.3 °F 29.80 in NW 2.0 mph 3.0 mph 72% 0.00 in 93 W/m2
15:08 58.1 °F 48.7 °F 29.80 in NNW 1.0 mph 3.0 mph 71% 0.00 in 104 W/m2
15:14 57.9 °F 48.6 °F 29.80 in NNW 2.0 mph 7.0 mph 71% 0.00 in 62 W/m2
15:20 57.4 °F 47.7 °F 29.80 in NW 3.0 mph 3.0 mph 70% 0.00 in 74 W/m2
15:26 57.1 °F 47.4 °F 29.80 in NW 4.0 mph 7.0 mph 70% 0.00 in 86 W/m2
15:32 57.0 °F 48.1 °F 29.80 in NNW 3.0 mph 3.0 mph 72% 0.00 in 72 W/m2
15:38 56.9 °F 47.6 °F 29.80 in NW 3.0 mph 3.0 mph 71% 0.00 in 53 W/m2
15:44 56.6 °F 47.3 °F 29.81 in NNW 3.0 mph 4.0 mph 71% 0.00 in 46 W/m2
15:50 56.4 °F 47.1 °F 29.81 in NW 3.0 mph 4.0 mph 71% 0.00 in 62 W/m2
15:56 56.1 °F 46.4 °F 29.82 in WNW 4.0 mph 4.0 mph 70% 0.00 in 65 W/m2
16:02 55.9 °F 46.6 °F 29.82 in NNW 3.0 mph 3.0 mph 71% 0.00 in 39 W/m2
16:08 55.8 °F 46.5 °F 29.81 in NNW 2.0 mph 3.0 mph 71% 0.00 in 39 W/m2
16:14 55.7 °F 46.8 °F 29.82 in NNW 2.0 mph 6.0 mph 72% 0.00 in 39 W/m2
16:20 55.7 °F 46.4 °F 29.82 in NNW 2.0 mph 2.0 mph 71% 0.00 in 39 W/m2
16:26 55.7 °F 46.1 °F 29.82 in NNW 2.0 mph 4.0 mph 70% 0.00 in 47 W/m2
16:32 55.7 °F 46.1 °F 29.82 in NW 3.0 mph 4.0 mph 70% 0.00 in 35 W/m2
16:44 55.5 °F 45.9 °F 29.83 in NW 2.0 mph 2.0 mph 70% 0.00 in 42 W/m2
16:50 55.4 °F 46.2 °F 29.82 in NNW 2.0 mph 2.0 mph 71% 0.00 in 46 W/m2
16:56 55.3 °F 45.7 °F 29.82 in NNW 1.0 mph 2.0 mph 70% 0.00 in 37 W/m2
17:02 55.3 °F 45.7 °F 29.82 in NNW 1.0 mph 2.0 mph 70% 0.00 in 37 W/m2
17:08 55.3 °F 46.1 °F 29.82 in NNW 1.0 mph 2.0 mph 71% 0.00 in 40 W/m2
17:14 55.2 °F 45.6 °F 29.82 in North 1.0 mph 2.0 mph 70% 0.00 in 58 W/m2
17:20 55.2 °F 46.0 °F 29.82 in NNW 2.0 mph 2.0 mph 71% 0.00 in 42 W/m2
17:26 55.1 °F 45.5 °F 29.82 in NNW 1.0 mph 2.0 mph 70% 0.00 in 35 W/m2
17:32 55.1 °F 45.5 °F 29.83 in Calm     70% 0.00 in 39 W/m2
17:38 55.1 °F 45.9 °F 29.83 in Calm     71% 0.00 in 33 W/m2
17:44 54.9 °F 46.4 °F 29.85 in Calm   2.0 mph 73% 0.00 in 35 W/m2
17:50 54.8 °F 45.2 °F 29.85 in NNW 2.0 mph 9.0 mph 70% 0.00 in 32 W/m2
17:56 53.9 °F 44.0 °F 29.86 in NW 6.0 mph 13.0 mph 69% 0.00 in 39 W/m2
18:02 53.1 °F 43.9 °F 29.86 in NW 5.0 mph 7.0 mph 71% 0.00 in 37 W/m2
18:08 52.5 °F 44.1 °F 29.86 in NNW 4.0 mph 7.0 mph 73% 0.00 in 33 W/m2
18:14 52.2 °F 43.8 °F 29.86 in NW 5.0 mph 9.0 mph 73% 0.00 in 33 W/m2
18:22 51.8 °F 44.1 °F 29.87 in NW 4.0 mph 7.0 mph 75% 0.00 in 26 W/m2
18:28 51.7 °F 44.0 °F 29.87 in NW 3.0 mph 7.0 mph 75% 0.00 in 32 W/m2
18:34 51.6 °F 44.3 °F 29.87 in West 3.0 mph 6.0 mph 76% 0.00 in 33 W/m2
18:40 51.5 °F 43.8 °F 29.87 in NNW 3.0 mph 3.0 mph 75% 0.00 in 32 W/m2
18:46 51.4 °F 44.1 °F 29.88 in NNW 2.0 mph 3.0 mph 76% 0.00 in 32 W/m2
18:52 51.3 °F 44.0 °F 29.88 in WNW 3.0 mph 3.0 mph 76% 0.00 in 33 W/m2
18:58 51.2 °F 43.9 °F 29.88 in WNW 3.0 mph 5.0 mph 76% 0.00 in 46 W/m2
19:04 51.2 °F 43.9 °F 29.88 in WNW 3.0 mph 3.0 mph 76% 0.00 in 47 W/m2
19:10 51.1 °F 43.8 °F 29.88 in West 2.0 mph 7.0 mph 76% 0.00 in 39 W/m2
19:16 51.1 °F 43.8 °F 29.88 in NNW 2.0 mph 7.0 mph 76% 0.00 in 33 W/m2
19:22 50.9 °F 43.6 °F 29.89 in NNW 2.0 mph 2.0 mph 76% 0.00 in 23 W/m2
19:28 50.7 °F 43.8 °F 29.90 in NW 2.0 mph 2.0 mph 77% 0.00 in 16 W/m2
19:33 50.6 °F 43.3 °F 29.90 in WNW 2.0 mph 3.0 mph 76% 0.00 in 12 W/m2
19:40 50.6 °F 43.7 °F 29.90 in WNW 1.0 mph 1.0 mph 77% 0.00 in 7 W/m2
19:46 50.5 °F 43.6 °F 29.90 in NW 1.0 mph 2.0 mph 77% 0.00 in 5 W/m2
19:52 50.5 °F 43.6 °F 29.90 in NW 1.0 mph 1.0 mph 77% 0.00 in 0 W/m2
19:58 50.4 °F 43.5 °F 29.90 in NW 1.0 mph 2.0 mph 77% 0.00 in 0 W/m2
20:04 50.3 °F 43.4 °F 29.90 in Calm   2.0 mph 77% 0.00 in 0 W/m2
20:10 50.2 °F 43.3 °F 29.90 in NNW 2.0 mph 2.0 mph 77% 0.00 in 0 W/m2
20:16 50.2 °F 43.3 °F 29.90 in WNW 2.0 mph 3.0 mph 77% 0.00 in 0 W/m2
20:22 50.2 °F 43.3 °F 29.90 in WSW 1.0 mph 1.0 mph 77% 0.00 in 0 W/m2
20:28 50.1 °F 43.2 °F 29.90 in WNW 2.0 mph 3.0 mph 77% 0.00 in 0 W/m2
20:34 50.0 °F 43.1 °F 29.90 in NW 2.0 mph 6.0 mph 77% 0.00 in 0 W/m2
20:40 49.9 °F 43.0 °F 29.91 in NNW 3.0 mph 3.0 mph 77% 0.00 in 0 W/m2
20:46 49.9 °F 43.0 °F 29.91 in NNW 3.0 mph 4.0 mph 77% 0.00 in 0 W/m2
20:52 49.8 °F 43.2 °F 29.91 in WNW 4.0 mph 4.0 mph 78% 0.00 in 0 W/m2
20:58 49.6 °F 43.0 °F 29.92 in WNW 2.0 mph 4.0 mph 78% 0.00 in 0 W/m2
21:04 49.5 °F 42.9 °F 29.92 in WNW 2.0 mph 4.0 mph 78% 0.00 in 0 W/m2
21:10 49.4 °F 42.8 °F 29.92 in NNW 3.0 mph 3.0 mph 78% 0.00 in 0 W/m2
21:16 49.6 °F 43.0 °F 29.92 in WNW 3.0 mph 3.0 mph 78% 0.00 in 0 W/m2
21:22 49.6 °F 42.7 °F 29.92 in NW 2.0 mph 4.0 mph 77% 0.00 in 0 W/m2
21:28 49.6 °F 42.7 °F 29.93 in WNW 2.0 mph 4.0 mph 77% 0.00 in 0 W/m2
21:34 49.7 °F 42.8 °F 29.92 in WNW 2.0 mph 4.0 mph 77% 0.00 in 0 W/m2
21:40 49.6 °F 42.7 °F 29.93 in WNW 2.0 mph 2.0 mph 77% 0.00 in 0 W/m2
21:46 49.6 °F 42.7 °F 29.93 in West 2.0 mph 2.0 mph 77% 0.00 in 0 W/m2
21:52 49.6 °F 42.7 °F 29.93 in WSW 2.0 mph 2.0 mph 77% 0.00 in 0 W/m2
21:58 49.7 °F 42.8 °F 29.92 in WSW 2.0 mph 2.0 mph 77% 0.00 in 0 W/m2
22:04 49.6 °F 42.7 °F 29.92 in SW 1.0 mph 2.0 mph 77% 0.00 in 0 W/m2
22:10 49.6 °F 42.7 °F 29.92 in WSW 2.0 mph 2.0 mph 77% 0.00 in 0 W/m2
22:16 49.6 °F 42.7 °F 29.92 in West 1.0 mph 2.0 mph 77% 0.00 in 0 W/m2
22:22 49.5 °F 42.6 °F 29.92 in WSW 1.0 mph 3.0 mph 77% 0.00 in 0 W/m2
22:28 49.4 °F 42.5 °F 29.92 in West 2.0 mph 3.0 mph 77% 0.00 in 0 W/m2
22:34 49.4 °F 42.5 °F 29.92 in West 1.0 mph 2.0 mph 77% 0.00 in 0 W/m2
22:40 49.3 °F 42.1 °F 29.92 in West 1.0 mph 3.0 mph 76% 0.00 in 0 W/m2
22:46 49.3 °F 42.1 °F 29.93 in WNW 1.0 mph 3.0 mph 76% 0.00 in 0 W/m2
22:52 49.4 °F 42.1 °F 29.93 in WSW 2.0 mph 2.0 mph 76% 0.00 in 0 W/m2
22:58 49.4 °F 42.1 °F 29.93 in WSW 1.0 mph 2.0 mph 76% 0.00 in 0 W/m2
23:04 49.4 °F 42.1 °F 29.93 in West 1.0 mph 1.0 mph 76% 0.00 in 0 W/m2
23:10 49.2 °F 42.0 °F 29.93 in West 1.0 mph 2.0 mph 76% 0.00 in 0 W/m2
23:16 49.1 °F 41.5 °F 29.93 in NW 2.0 mph 3.0 mph 75% 0.00 in 0 W/m2
23:22 48.9 °F 41.7 °F 29.93 in WSW 1.0 mph 2.0 mph 76% 0.00 in 0 W/m2
23:28 48.9 °F 41.7 °F 29.93 in WNW 1.0 mph 2.0 mph 76% 0.00 in 0 W/m2
23:34 48.9 °F 41.3 °F 29.93 in WSW 1.0 mph 6.0 mph 75% 0.00 in 0 W/m2
23:40 49.0 °F 41.4 °F 29.93 in West 2.0 mph 2.0 mph 75% 0.00 in 0 W/m2
23:46 49.0 °F 41.4 °F 29.93 in WNW 2.0 mph 3.0 mph 75% 0.00 in 0 W/m2
23:52 48.9 °F 41.3 °F 29.93 in WNW 2.0 mph 2.0 mph 75% 0.00 in 0 W/m2
23:58 48.7 °F 41.1 °F 29.93 in WSW 2.0 mph 4.0 mph 75% 0.00 in 0 W/m2
Country Meadow, Clay, NY, USA
Compliments of Weather Underground - 2 mb